Time;durP1;ratioP1;P1;durP2;ratioP2;P2;SDS_P1;SDS_P2;PMS_P1;PMS_P2;Temp;Humidity;BMP_temperature;BMP_pressure;BME280_temperature;BME280_humidity;BME280_pressure;Samples;Min_cycle;Max_cycle;Signal;HPM_P1;HPM_P2
2021/10/09 00:02:04;;;;;;;0.00;0.00;;;9.40;99.90;;;;;;6267815;22;20440;-94
2021/10/09 00:04:30;;;;;;;0.00;0.00;;;9.40;99.90;;;;;;6268205;22;20012;-93
2021/10/09 00:06:57;;;;;;;0.08;0.08;;;9.40;99.90;;;;;;6267714;22;20360;-94
2021/10/09 00:09:24;;;;;;;0.08;0.08;;;9.40;99.90;;;;;;6243151;22;20087;-95
2021/10/09 00:11:51;;;;;;;0.10;0.10;;;9.00;99.90;;;;;;6267860;22;20012;-94
2021/10/09 00:14:18;;;;;;;0.10;0.10;;;9.30;99.90;;;;;;6268097;22;20053;-93
2021/10/09 00:16:45;;;;;;;0.45;0.30;;;9.20;99.90;;;;;;6267655;22;20012;-93
2021/10/09 00:19:13;;;;;;;0.10;0.10;;;9.20;99.90;;;;;;6268183;22;20073;-94
2021/10/09 00:21:44;;;;;;;0.03;0.03;;;9.10;99.90;;;;;;6268540;22;20023;-94
2021/10/09 00:24:15;;;;;;;0.10;0.10;;;9.20;99.90;;;;;;6267914;22;20088;-94
2021/10/09 00:26:42;;;;;;;0.25;0.10;;;9.10;99.90;;;;;;6268516;22;20019;-94
2021/10/09 00:29:10;;;;;;;0.10;0.10;;;9.10;99.90;;;;;;6269199;22;20012;-93
2021/10/09 00:31:37;;;;;;;0.05;0.05;;;9.10;99.90;;;;;;6270195;22;20091;-94
2021/10/09 00:34:04;;;;;;;0.10;0.10;;;9.10;99.90;;;;;;6269608;22;20011;-93
2021/10/09 00:36:31;;;;;;;0.10;0.10;;;9.10;99.90;;;;;;6269928;22;20440;-94
2021/10/09 00:38:58;;;;;;;0.30;0.30;;;9.00;99.90;;;;;;6269892;22;20102;-94
2021/10/09 00:41:25;;;;;;;0.00;0.00;;;9.10;99.90;;;;;;6270123;22;20012;-94
2021/10/09 00:43:53;;;;;;;0.10;0.10;;;9.20;99.90;;;;;;6270173;22;20046;-94
2021/10/09 00:46:20;;;;;;;0.13;0.13;;;9.00;99.90;;;;;;6270203;22;20019;-94
2021/10/09 00:48:47;;;;;;;0.10;0.10;;;9.00;99.90;;;;;;6269451;22;20077;-93
2021/10/09 00:51:14;;;;;;;0.25;0.13;;;9.00;99.90;;;;;;6270143;22;20011;-93
2021/10/09 00:53:47;;;;;;;0.00;0.00;;;9.00;99.90;;;;;;6269942;22;20043;-94
2021/10/09 00:56:17;;;;;;;0.20;0.20;;;9.00;99.90;;;;;;6270268;22;20095;-95
2021/10/09 00:58:45;;;;;;;0.00;0.00;;;9.00;99.90;;;;;;6244943;22;20015;-94
2021/10/09 01:01:12;;;;;;;0.00;0.00;;;9.00;99.90;;;;;;6269784;22;20332;-94
2021/10/09 01:03:39;;;;;;;0.05;0.05;;;8.90;99.90;;;;;;6244981;22;20095;-94
2021/10/09 01:06:07;;;;;;;0.00;0.00;;;8.90;99.90;;;;;;6269426;22;20047;-94
2021/10/09 01:08:33;;;;;;;0.00;0.00;;;8.90;99.90;;;;;;6269846;22;20012;-93
2021/10/09 01:11:01;;;;;;;0.00;0.00;;;8.90;99.90;;;;;;6269173;22;20018;-94
2021/10/09 01:13:28;;;;;;;0.08;0.08;;;8.50;99.90;;;;;;6269932;22;20348;-94
2021/10/09 01:15:55;;;;;;;0.00;0.00;;;8.90;99.90;;;;;;6244473;22;20023;-94
2021/10/09 01:18:21;;;;;;;1.25;0.13;;;8.90;99.90;;;;;;6269273;22;20020;-94
2021/10/09 01:21:02;;;;;;;0.00;0.00;;;8.90;99.90;;;;;;6269545;22;20725;-95
2021/10/09 01:23:29;;;;;;;0.00;0.00;;;8.90;99.90;;;;;;6245411;22;20031;-94
2021/10/09 01:25:56;;;;;;;0.00;0.00;;;9.00;99.90;;;;;;6244348;22;20095;-94
2021/10/09 01:28:23;;;;;;;0.10;0.10;;;9.00;99.90;;;;;;6269467;22;20061;-94
2021/10/09 01:30:54;;;;;;;0.03;0.03;;;9.00;99.90;;;;;;6269352;22;20016;-94
2021/10/09 01:33:21;;;;;;;0.00;0.00;;;8.90;99.90;;;;;;6269892;22;20008;-94
2021/10/09 01:35:50;;;;;;;0.10;0.10;;;8.90;99.90;;;;;;6269880;22;20058;-94
2021/10/09 01:38:19;;;;;;;0.00;0.00;;;8.90;99.90;;;;;;6269548;22;20019;-94
2021/10/09 01:40:46;;;;;;;0.10;0.10;;;8.60;99.90;;;;;;6268739;22;20023;-93
2021/10/09 01:43:15;;;;;;;0.10;0.10;;;8.90;99.90;;;;;;6244316;22;20015;-94
2021/10/09 01:45:42;;;;;;;0.25;0.25;;;8.90;99.90;;;;;;6269340;22;20019;-94
2021/10/09 01:48:12;;;;;;;0.00;0.00;;;8.90;99.90;;;;;;6268676;22;20448;-94
2021/10/09 01:50:39;;;;;;;0.10;0.10;;;8.90;99.90;;;;;;6269104;22;20445;-95
2021/10/09 01:53:08;;;;;;;0.88;0.10;;;9.00;99.90;;;;;;6268939;22;20100;-94
2021/10/09 01:55:36;;;;;;;0.00;0.00;;;9.00;99.90;;;;;;6269231;22;20043;-94
2021/10/09 01:58:03;;;;;;;0.10;0.10;;;9.20;99.90;;;;;;6269077;22;20014;-94
2021/10/09 02:00:33;;;;;;;0.00;0.00;;;9.20;99.90;;;;;;6269248;22;20008;-94
2021/10/09 02:03:03;;;;;;;0.10;0.10;;;9.20;99.90;;;;;;6268308;22;20098;-94
2021/10/09 02:05:31;;;;;;;0.00;0.00;;;9.20;99.90;;;;;;6269075;22;20095;-94
2021/10/09 02:07:58;;;;;;;0.20;0.20;;;9.20;99.90;;;;;;6268457;22;20814;-94
2021/10/09 02:10:25;;;;;;;0.10;0.10;;;9.30;99.90;;;;;;6269269;22;20715;-94
2021/10/09 02:12:52;;;;;;;0.00;0.00;;;9.30;99.90;;;;;;6269249;22;20012;-94
2021/10/09 02:15:32;;;;;;;0.10;0.10;;;9.30;99.90;;;;;;6268712;22;20094;-94
2021/10/09 02:26:03;;;;;;;0.05;0.05;;;9.30;99.90;;;;;;6294113;22;20340;-94
2021/10/09 02:28:33;;;;;;;0.00;0.00;;;9.30;99.90;;;;;;6268978;22;20043;-94
2021/10/09 02:31:00;;;;;;;0.10;0.10;;;9.40;99.90;;;;;;6268681;22;20337;-94
2021/10/09 02:33:27;;;;;;;0.00;0.00;;;9.00;99.90;;;;;;6269424;22;20020;-94
2021/10/09 02:35:54;;;;;;;0.00;0.00;;;9.40;99.90;;;;;;6268767;22;20011;-93
2021/10/09 02:38:21;;;;;;;0.10;0.10;;;9.40;99.90;;;;;;6268981;22;20045;-94
2021/10/09 02:40:48;;;;;;;0.08;0.08;;;9.40;99.90;;;;;;6269098;22;20016;-94
2021/10/09 02:43:15;;;;;;;0.13;0.10;;;9.40;99.90;;;;;;6268311;22;20033;-93
2021/10/09 02:45:42;;;;;;;0.10;0.10;;;9.70;99.90;;;;;;6268537;22;20019;-94
2021/10/09 02:48:09;;;;;;;0.05;0.05;;;9.40;99.90;;;;;;6268386;22;20012;-94
2021/10/09 02:50:37;;;;;;;0.05;0.05;;;9.50;99.90;;;;;;6268396;22;20016;-94
2021/10/09 02:53:04;;;;;;;0.25;0.10;;;9.50;99.90;;;;;;6268046;22;20090;-94
2021/10/09 02:55:31;;;;;;;0.00;0.00;;;9.50;99.90;;;;;;6268997;22;20035;-95
2021/10/09 02:57:57;;;;;;;0.10;0.10;;;9.50;99.90;;;;;;6243309;22;20145;-94
2021/10/09 03:00:24;;;;;;;0.00;0.00;;;9.50;99.90;;;;;;6268198;22;20318;-94
2021/10/09 03:02:51;;;;;;;0.10;0.10;;;9.50;99.90;;;;;;6219074;22;20039;-94
2021/10/09 03:05:18;;;;;;;0.05;0.05;;;9.50;99.90;;;;;;6243466;22;20314;-94
2021/10/09 03:07:45;;;;;;;0.05;0.05;;;9.50;99.90;;;;;;6268789;22;20016;-94
2021/10/09 03:10:13;;;;;;;0.10;0.10;;;9.50;99.90;;;;;;6268436;22;20030;-94
2021/10/09 03:12:40;;;;;;;0.00;0.00;;;9.50;99.90;;;;;;6268121;22;20012;-94
2021/10/09 03:15:08;;;;;;;0.00;0.00;;;9.50;99.90;;;;;;6243237;22;20015;-94
2021/10/09 03:17:36;;;;;;;0.10;0.10;;;9.60;99.90;;;;;;6268815;22;20019;-94
2021/10/09 03:20:05;;;;;;;0.08;0.08;;;9.60;99.90;;;;;;6268836;22;20011;-93
2021/10/09 03:22:32;;;;;;;0.00;0.00;;;9.60;99.90;;;;;;6268783;22;20015;-94
2021/10/09 03:24:59;;;;;;;0.00;0.00;;;9.60;99.90;;;;;;6268468;22;20016;-94
2021/10/09 03:27:26;;;;;;;0.00;0.00;;;9.60;99.90;;;;;;6243228;22;20022;-94
2021/10/09 03:29:53;;;;;;;0.00;0.00;;;9.70;99.90;;;;;;6268494;22;20047;-94
2021/10/09 03:32:20;;;;;;;0.10;0.10;;;9.70;99.90;;;;;;6267795;22;20467;-94
2021/10/09 03:34:47;;;;;;;0.00;0.00;;;9.60;99.90;;;;;;6268918;22;20015;-94
2021/10/09 03:37:14;;;;;;;0.10;0.10;;;9.60;99.90;;;;;;6268355;22;20019;-94
2021/10/09 03:39:44;;;;;;;0.10;0.10;;;9.60;99.90;;;;;;6268277;22;20341;-94
2021/10/09 03:42:18;;;;;;;0.00;0.00;;;9.60;99.90;;;;;;6267915;22;20019;-94
2021/10/09 03:44:53;;;;;;;0.00;0.00;;;9.60;99.90;;;;;;6222201;22;20054;-94
2021/10/09 03:50:18;;;;;;;0.10;0.10;;;9.70;99.90;;;;;;6293580;22;20016;-93
2021/10/09 03:52:45;;;;;;;0.10;0.10;;;9.70;99.90;;;;;;6268756;22;20011;-94
2021/10/09 03:55:17;;;;;;;0.00;0.00;;;9.70;99.90;;;;;;6268443;22;20012;-94
2021/10/09 03:57:44;;;;;;;0.43;0.20;;;9.70;99.90;;;;;;6268836;22;20055;-94
2021/10/09 04:00:13;;;;;;;0.10;0.10;;;9.70;99.90;;;;;;6243406;22;20022;-94
2021/10/09 04:02:40;;;;;;;0.20;0.10;;;9.70;99.90;;;;;;6269028;22;20012;-93
2021/10/09 04:05:07;;;;;;;0.00;0.00;;;9.70;99.90;;;;;;6245351;22;20024;-94
2021/10/09 04:07:34;;;;;;;0.00;0.00;;;9.70;99.90;;;;;;6245450;22;20051;-94
2021/10/09 04:10:02;;;;;;;0.00;0.00;;;9.70;99.90;;;;;;6270264;22;20018;-94
2021/10/09 04:12:29;;;;;;;0.00;0.00;;;9.70;99.90;;;;;;6269979;22;20043;-94
2021/10/09 04:14:56;;;;;;;0.00;0.00;;;9.70;99.90;;;;;;6270373;22;20012;-94
2021/10/09 04:17:23;;;;;;;0.00;0.00;;;9.70;99.90;;;;;;6244837;22;20443;-95
2021/10/09 04:19:50;;;;;;;0.05;0.05;;;9.80;99.90;;;;;;6270537;22;20450;-95
2021/10/09 04:22:17;;;;;;;0.35;0.32;;;9.80;99.90;;;;;;6245012;22;20018;-94
2021/10/09 04:24:44;;;;;;;0.08;0.08;;;9.70;99.90;;;;;;6270500;22;20011;-93
2021/10/09 04:27:10;;;;;;;0.00;0.00;;;9.70;99.90;;;;;;6269574;22;20012;-93
2021/10/09 04:29:37;;;;;;;0.08;0.08;;;9.80;99.90;;;;;;6270102;22;20022;-94
2021/10/09 04:32:04;;;;;;;0.10;0.10;;;9.80;99.90;;;;;;6245104;22;20420;-94
2021/10/09 04:34:31;;;;;;;0.93;0.10;;;9.80;99.90;;;;;;6269597;22;20019;-94
2021/10/09 04:37:04;;;;;;;0.10;0.10;;;9.80;99.90;;;;;;6270108;22;20445;-94
2021/10/09 04:39:31;;;;;;;0.20;0.05;;;9.80;99.90;;;;;;6270643;22;20313;-94
2021/10/09 04:41:58;;;;;;;0.00;0.00;;;9.80;99.90;;;;;;6245553;22;20019;-94
2021/10/09 04:44:24;;;;;;;0.10;0.10;;;9.80;99.90;;;;;;6269940;22;20598;-94
2021/10/09 04:46:51;;;;;;;0.10;0.10;;;9.70;99.90;;;;;;6269670;22;20019;-94
2021/10/09 04:49:18;;;;;;;0.00;0.00;;;9.80;99.90;;;;;;6269722;22;20500;-94
2021/10/09 04:51:46;;;;;;;0.00;0.00;;;9.80;99.90;;;;;;6270001;22;20022;-94
2021/10/09 04:54:17;;;;;;;1.02;0.20;;;9.70;99.90;;;;;;6271255;22;20016;-94
2021/10/09 04:56:45;;;;;;;0.00;0.00;;;9.80;99.90;;;;;;6245490;22;20043;-94
2021/10/09 04:59:11;;;;;;;0.00;0.00;;;9.20;99.90;;;;;;6270235;22;20015;-94
2021/10/09 05:01:38;;;;;;;0.00;0.00;;;9.80;99.90;;;;;;6269733;22;20062;-94
2021/10/09 05:04:05;;;;;;;0.00;0.00;;;9.70;99.90;;;;;;6269810;22;20011;-95
2021/10/09 05:06:32;;;;;;;0.05;0.05;;;9.80;99.90;;;;;;6269708;22;20018;-94
2021/10/09 05:08:59;;;;;;;0.28;0.20;;;9.70;99.90;;;;;;6269685;22;20432;-94
2021/10/09 05:11:26;;;;;;;0.10;0.10;;;9.70;99.90;;;;;;6269068;22;20015;-94
2021/10/09 05:13:53;;;;;;;0.10;0.10;;;9.70;99.90;;;;;;6269789;22;20043;-94
2021/10/09 05:16:19;;;;;;;0.10;0.10;;;9.70;99.90;;;;;;6269679;22;20094;-93
2021/10/09 05:18:47;;;;;;;0.70;0.32;;;9.70;99.90;;;;;;6269943;22;20042;-94
2021/10/09 05:21:13;;;;;;;0.10;0.10;;;9.70;99.90;;;;;;6270086;22;20062;-95
2021/10/09 05:23:41;;;;;;;0.38;0.17;;;9.70;99.90;;;;;;6269717;22;20051;-94
2021/10/09 05:26:08;;;;;;;0.00;0.00;;;9.60;99.90;;;;;;6270019;22;20016;-94
2021/10/09 05:28:46;;;;;;;0.00;0.00;;;9.60;99.90;;;;;;6244442;22;20047;-94
2021/10/09 05:31:25;;;;;;;0.10;0.10;;;9.50;99.90;;;;;;6269439;22;20012;-95
2021/10/09 05:33:53;;;;;;;0.17;0.10;;;9.50;99.90;;;;;;6246850;22;20015;-94
2021/10/09 05:36:21;;;;;;;0.00;0.00;;;9.50;99.90;;;;;;6269527;22;20015;-95
2021/10/09 05:38:49;;;;;;;0.10;0.10;;;9.50;99.90;;;;;;6269523;22;20027;-94
2021/10/09 05:41:15;;;;;;;0.20;0.20;;;9.50;99.90;;;;;;6269507;22;20505;-94
2021/10/09 05:43:43;;;;;;;0.00;0.00;;;9.50;99.90;;;;;;6269106;22;20016;-93
2021/10/09 05:46:10;;;;;;;0.10;0.10;;;9.50;99.90;;;;;;6269414;22;20045;-95
2021/10/09 05:48:39;;;;;;;0.00;0.00;;;9.50;99.90;;;;;;6244251;22;20047;-94
2021/10/09 05:51:24;;;;;;;0.00;0.00;;;9.50;99.90;;;;;;6269309;22;20011;-95
2021/10/09 05:54:05;;;;;;;0.10;0.10;;;9.50;99.90;;;;;;6269528;22;20011;-94
2021/10/09 06:51:15;;;;;;;0.00;0.00;;;9.50;99.90;;;;;;6294550;22;20023;-95
2021/10/09 06:59:32;;;;;;;0.10;0.10;;;9.50;99.90;;;;;;6273147;22;20016;-94
2021/10/09 07:01:59;;;;;;;0.00;0.00;;;9.50;99.90;;;;;;6293922;22;20441;-94
2021/10/09 07:04:26;;;;;;;0.00;0.00;;;9.40;99.90;;;;;;6268652;22;20051;-93
2021/10/09 07:06:54;;;;;;;0.00;0.00;;;9.50;99.90;;;;;;6268389;22;20324;-93
2021/10/09 07:09:21;;;;;;;0.05;0.05;;;9.40;99.90;;;;;;6244348;22;20041;-93
2021/10/09 07:11:47;;;;;;;0.00;0.00;;;9.40;99.90;;;;;;6243377;22;20015;-93
2021/10/09 07:14:14;;;;;;;0.00;0.00;;;9.40;99.90;;;;;;6243916;22;20015;-93
2021/10/09 07:16:41;;;;;;;0.10;0.10;;;9.40;99.90;;;;;;6268256;22;20012;-93
2021/10/09 07:19:08;;;;;;;0.10;0.10;;;9.40;99.90;;;;;;6268349;22;20073;-92
2021/10/09 07:21:35;;;;;;;0.20;0.20;;;9.50;99.90;;;;;;6268306;22;20051;-93
2021/10/09 07:24:05;;;;;;;0.63;0.35;;;9.50;99.90;;;;;;6268525;22;20047;-95
2021/10/09 09:51:16;;;;;;;0.22;0.22;;;12.30;99.90;;;;;;6274451;22;20240;-96
2021/10/09 09:53:45;;;;;;;0.00;0.00;;;12.30;99.90;;;;;;6269173;22;20340;-90
2021/10/09 09:56:13;;;;;;;0.22;0.15;;;12.40;99.90;;;;;;6268775;22;20122;-93
2021/10/09 09:58:47;;;;;;;0.20;0.15;;;12.50;99.90;;;;;;6245626;22;20375;-90
2021/10/09 10:01:14;;;;;;;0.75;0.20;;;12.60;99.90;;;;;;6269114;22;20043;-94
2021/10/09 10:03:46;;;;;;;0.00;0.00;;;12.70;99.90;;;;;;6218813;22;20007;-93
2021/10/09 10:06:15;;;;;;;0.10;0.10;;;12.70;99.90;;;;;;6270518;22;20401;-96
2021/10/09 10:08:46;;;;;;;0.10;0.10;;;12.80;99.90;;;;;;6272906;22;20015;-93
2021/10/09 10:11:44;;;;;;;0.08;0.05;;;12.90;99.90;;;;;;6287150;23;20012;-96
2021/10/09 10:14:14;;;;;;;0.05;0.05;;;12.90;99.90;;;;;;6240035;23;20016;-96
2021/10/09 11:56:10;;;;;;;0.03;0.03;;;14.10;99.90;;;;;;6262901;23;20349;-92
2021/10/09 11:58:54;;;;;;;0.10;0.10;;;14.10;99.90;;;;;;6237629;23;20012;-91
2021/10/09 12:01:51;;;;;;;0.00;0.00;;;14.00;99.90;;;;;;6239777;23;20060;-91
2021/10/09 12:05:21;;;;;;;0.10;0.10;;;14.10;99.90;;;;;;6247099;23;20015;-92
2021/10/09 12:08:18;;;;;;;0.00;0.00;;;14.20;99.90;;;;;;6177577;23;20009;-95
2021/10/09 12:11:14;;;;;;;0.08;0.08;;;14.10;99.90;;;;;;6177578;23;20013;-91
2021/10/09 12:13:57;;;;;;;0.30;0.15;;;14.20;99.90;;;;;;6177788;23;20094;-92
2021/10/09 12:16:32;;;;;;;0.47;0.30;;;14.30;99.90;;;;;;6177060;23;20017;-91
2021/10/09 12:19:07;;;;;;;2.45;0.30;;;14.20;99.90;;;;;;6176681;23;20013;-92
2021/10/09 12:21:44;;;;;;;0.28;0.20;;;14.20;99.90;;;;;;6153088;23;20071;-92
2021/10/09 12:24:22;;;;;;;0.00;0.00;;;14.20;99.90;;;;;;6178111;23;20401;-92
2021/10/09 12:27:20;;;;;;;0.00;0.00;;;14.20;99.90;;;;;;6179289;23;20087;-94
2021/10/09 12:30:09;;;;;;;0.10;0.10;;;14.20;99.90;;;;;;6175242;23;20207;-92
2021/10/09 12:32:59;;;;;;;0.32;0.30;;;14.20;99.90;;;;;;6226102;23;20016;-95
2021/10/09 12:35:57;;;;;;;0.20;0.20;;;14.20;99.90;;;;;;6239835;23;20015;-96
2021/10/09 12:38:43;;;;;;;0.00;0.00;;;14.20;99.90;;;;;;6194022;23;20016;-96
2021/10/09 12:41:21;;;;;;;0.00;0.00;;;14.20;99.90;;;;;;6239326;23;20012;-95
2021/10/09 12:43:55;;;;;;;0.10;0.10;;;14.20;99.90;;;;;;6238104;23;20343;-95
2021/10/09 12:46:29;;;;;;;0.10;0.10;;;14.30;99.90;;;;;;6240415;23;20019;-96
2021/10/09 12:48:56;;;;;;;0.10;0.10;;;14.30;99.90;;;;;;6239512;23;20023;-96
2021/10/09 12:51:50;;;;;;;;;;;;;;;;;;;;;
2021/10/09 13:10:05;;;;;;;0.32;0.22;;;14.50;99.90;;;;;;5975253;24;20076;-96
2021/10/09 13:13:08;;;;;;;0.38;0.20;;;14.50;99.90;;;;;;5934554;24;20048;-96
2021/10/09 13:15:35;;;;;;;0.10;0.05;;;14.40;99.90;;;;;;5997469;24;20110;-95
2021/10/09 13:18:10;;;;;;;0.43;0.25;;;14.50;99.90;;;;;;6172855;22;20018;-96
2021/10/09 13:28:36;;;;;;;;;;;;;;;;;;;;;
2021/10/09 13:38:34;;;;;;;0.00;0.00;;;14.50;99.90;;;;;;6052653;23;20042;-95
2021/10/09 13:41:01;;;;;;;0.47;0.20;;;14.50;99.90;;;;;;6031376;23;20134;-94
2021/10/09 13:43:28;;;;;;;0.13;0.05;;;14.50;99.90;;;;;;6118982;23;20037;-93
2021/10/09 13:46:10;;;;;;;0.13;0.10;;;14.50;99.90;;;;;;6234747;22;20372;-94
2021/10/09 13:48:43;;;;;;;0.00;0.00;;;14.50;99.90;;;;;;6268225;22;20012;-94
2021/10/09 13:51:17;;;;;;;0.30;0.20;;;14.50;99.90;;;;;;6243865;22;20008;-94
2021/10/09 13:53:44;;;;;;;0.57;0.32;;;14.50;99.90;;;;;;6244965;22;20008;-95
2021/10/09 13:56:12;;;;;;;0.47;0.30;;;14.50;99.90;;;;;;6272347;22;20081;-96
2021/10/09 13:58:39;;;;;;;0.30;0.20;;;14.50;99.90;;;;;;6260386;22;20049;-95
2021/10/09 14:01:06;;;;;;;0.15;0.15;;;14.50;99.90;;;;;;6295758;22;20339;-95
2021/10/09 14:03:39;;;;;;;0.38;0.10;;;14.50;99.90;;;;;;6295926;22;20043;-95
2021/10/09 14:06:43;;;;;;;0.20;0.20;;;14.50;99.90;;;;;;6294766;22;20094;-96
2021/10/09 14:09:10;;;;;;;0.20;0.10;;;14.50;99.90;;;;;;6295453;22;20011;-95
2021/10/09 14:11:56;;;;;;;0.30;0.22;;;14.50;99.90;;;;;;6301824;22;20019;-96
2021/10/09 14:14:25;;;;;;;0.10;0.10;;;14.50;99.90;;;;;;6279942;22;20012;-93
2021/10/09 14:16:53;;;;;;;0.90;0.38;;;14.50;99.90;;;;;;6296426;22;20022;-94
2021/10/09 14:19:20;;;;;;;0.20;0.20;;;14.50;99.90;;;;;;6295861;22;20022;-95
2021/10/09 14:21:49;;;;;;;0.52;0.30;;;14.50;99.90;;;;;;6297903;22;20019;-94
2021/10/09 14:24:40;;;;;;;0.38;0.20;;;14.50;99.90;;;;;;6303457;22;20471;-96
2021/10/09 14:27:09;;;;;;;0.17;0.17;;;15.00;99.90;;;;;;6250898;23;20019;-96
2021/10/09 14:29:39;;;;;;;0.52;0.22;;;14.50;99.90;;;;;;6244550;23;20019;-95
2021/10/09 14:32:09;;;;;;;0.25;0.08;;;14.50;99.90;;;;;;6238510;23;20400;-94
2021/10/09 14:34:35;;;;;;;0.50;0.28;;;14.40;99.90;;;;;;6238813;23;20012;-93
2021/10/09 14:37:02;;;;;;;0.10;0.10;;;14.40;99.90;;;;;;6238187;23;20055;-89
2021/10/09 14:39:29;;;;;;;0.35;0.13;;;14.40;99.90;;;;;;6237179;23;20058;-94
2021/10/09 14:41:57;;;;;;;0.10;0.10;;;14.40;99.90;;;;;;6212621;23;20433;-92
2021/10/09 14:44:24;;;;;;;0.05;0.05;;;14.40;99.90;;;;;;6236969;23;20058;-94
2021/10/09 14:49:32;;;;;;;0.22;0.17;;;14.30;99.90;;;;;;6213663;23;20031;-91
2021/10/09 14:52:12;;;;;;;0.40;0.22;;;14.30;99.90;;;;;;6236630;23;20008;-92
2021/10/09 15:19:47;;;;;;;0.25;0.20;;;14.20;99.90;;;;;;6319494;22;20019;-91
2021/10/09 15:22:14;;;;;;;0.40;0.10;;;14.60;99.90;;;;;;6293890;22;20016;-91
2021/10/09 15:24:41;;;;;;;0.82;0.22;;;14.00;99.90;;;;;;6293772;22;20015;-91
2021/10/09 15:27:31;;;;;;;0.08;0.08;;;13.90;99.90;;;;;;6294267;22;20012;-95
2021/10/09 15:29:58;;;;;;;0.10;0.10;;;13.90;99.90;;;;;;6274751;22;20019;-91
2021/10/09 15:32:25;;;;;;;0.25;0.20;;;13.80;99.90;;;;;;6293865;22;20440;-94
2021/10/09 15:34:52;;;;;;;0.05;0.05;;;13.80;99.90;;;;;;6293411;22;20011;-95
2021/10/09 15:37:19;;;;;;;0.20;0.10;;;13.80;99.90;;;;;;6293566;22;20018;-94
2021/10/09 15:39:47;;;;;;;0.20;0.15;;;13.60;99.90;;;;;;6293381;22;20058;-96
2021/10/09 15:42:14;;;;;;;0.50;0.17;;;13.60;99.90;;;;;;6243779;22;20444;-95
2021/10/09 15:44:41;;;;;;;0.38;0.20;;;13.50;99.90;;;;;;6293261;22;20062;-96
2021/10/09 15:47:08;;;;;;;4.28;0.10;;;13.50;99.90;;;;;;6268827;22;20463;-96
2021/10/09 15:49:53;;;;;;;;;;;;;;;;;;;;;
2021/10/09 15:52:20;;;;;;;0.17;0.17;;;13.40;99.90;;;;;;6319390;22;20371;-94
2021/10/09 15:54:46;;;;;;;0.25;0.17;;;13.10;99.90;;;;;;6293896;22;20008;-93
2021/10/09 15:57:13;;;;;;;0.17;0.10;;;13.20;99.90;;;;;;6294426;22;20034;-92
2021/10/09 15:59:43;;;;;;;0.17;0.08;;;13.10;99.90;;;;;;6269004;22;20012;-93
2021/10/09 16:02:12;;;;;;;0.10;0.05;;;13.10;99.90;;;;;;6294464;22;20016;-94
2021/10/09 16:04:47;;;;;;;0.30;0.22;;;13.00;99.90;;;;;;6294144;22;20433;-93
2021/10/09 16:07:16;;;;;;;0.10;0.08;;;13.00;99.90;;;;;;6294280;22;20011;-92
2021/10/09 16:09:43;;;;;;;0.00;0.00;;;12.90;99.90;;;;;;6294027;22;20019;-95
2021/10/09 16:12:10;;;;;;;0.10;0.10;;;12.80;99.90;;;;;;6294151;22;20008;-91
2021/10/09 17:36:23;;;;;;;0.10;0.10;;;10.30;99.90;;;;;;6287392;22;20024;-94
2021/10/09 17:38:51;;;;;;;0.00;0.00;;;10.20;99.90;;;;;;6239435;23;20024;-95
2021/10/09 17:41:45;;;;;;;0.13;0.10;;;10.20;99.90;;;;;;6241003;23;20102;-95
